Time;durP1;ratioP1;P1;durP2;ratioP2;P2;SDS_P1;SDS_P2;PMS_P1;PMS_P2;Temp;Humidity;BMP_temperature;BMP_pressure;BME280_temperature;BME280_humidity;BME280_pressure;Samples;Min_cycle;Max_cycle;Signal;HPM_P1;HPM_P2
2024/04/03 00:00:12;;;;;;;1.77;1.10;;;3.40;99.90;;;;;;2031068;29;20191;-70
2024/04/03 00:01:14;;;;;;;3.27;1.27;;;3.40;99.90;;;;;;2023102;29;20280;-70
2024/04/03 00:02:15;;;;;;;1.88;1.00;;;3.40;99.90;;;;;;2023577;29;20265;-72
2024/04/03 00:03:15;;;;;;;1.97;1.07;;;3.30;99.90;;;;;;2039135;29;20191;-70
2024/04/03 00:04:16;;;;;;;3.33;1.67;;;3.30;99.90;;;;;;2038844;29;20198;-70
2024/04/03 00:05:17;;;;;;;3.17;1.30;;;3.30;99.90;;;;;;2031663;29;20642;-70
2024/04/03 00:06:17;;;;;;;2.37;1.23;;;3.30;99.90;;;;;;2030968;29;20214;-70
2024/04/03 00:07:18;;;;;;;3.83;1.50;;;3.30;99.90;;;;;;2029000;29;20223;-70
2024/04/03 00:08:19;;;;;;;1.27;1.10;;;3.30;99.90;;;;;;2018041;29;20585;-70
2024/04/03 00:09:19;;;;;;;6.00;1.37;;;3.30;99.90;;;;;;2019375;29;20282;-70
2024/04/03 00:10:20;;;;;;;3.87;1.60;;;3.30;99.90;;;;;;2027018;29;30609;-70
2024/04/03 00:11:21;;;;;;;3.33;1.20;;;3.30;99.90;;;;;;2031599;29;20716;-70
2024/04/03 00:12:22;;;;;;;3.13;1.30;;;3.30;99.90;;;;;;2031378;29;20247;-70
2024/04/03 00:13:22;;;;;;;4.50;1.30;;;3.30;99.90;;;;;;2030935;29;20239;-70
2024/04/03 00:14:23;;;;;;;2.20;1.10;;;3.30;99.90;;;;;;2035960;29;20698;-70
2024/04/03 00:15:24;;;;;;;2.47;1.20;;;3.30;99.90;;;;;;2034982;29;20242;-70
2024/04/03 00:16:25;;;;;;;2.40;1.20;;;3.20;99.90;;;;;;2030625;29;20246;-70
2024/04/03 00:18:18;;;;;;;2.27;1.07;;;3.20;99.90;;;;;;2039299;29;20242;-70
2024/04/03 00:19:18;;;;;;;2.05;1.50;;;3.20;99.90;;;;;;2031117;29;20234;-70
2024/04/03 00:20:23;;;;;;;1.70;1.10;;;3.10;99.90;;;;;;2022509;29;20554;-70
2024/04/03 00:21:24;;;;;;;2.83;1.10;;;3.10;99.90;;;;;;2016257;29;20241;-70
2024/04/03 00:22:24;;;;;;;1.63;0.77;;;3.10;99.90;;;;;;2023277;29;20247;-70
2024/04/03 00:23:25;;;;;;;2.40;1.10;;;3.10;99.90;;;;;;2028118;29;20742;-70
2024/04/03 00:24:26;;;;;;;2.10;1.00;;;3.10;99.90;;;;;;2026595;29;20266;-70
2024/04/03 00:25:27;;;;;;;1.63;0.97;;;3.10;99.90;;;;;;2023250;29;20247;-70
2024/04/03 00:26:27;;;;;;;2.03;1.23;;;3.10;99.90;;;;;;2023032;29;20266;-70
2024/04/03 00:27:31;;;;;;;1.43;1.10;;;3.10;99.90;;;;;;2031755;29;20238;-70
2024/04/03 00:28:32;;;;;;;4.25;1.25;;;3.00;99.90;;;;;;2028023;29;20243;-69
2024/04/03 00:29:32;;;;;;;3.27;1.03;;;3.00;99.90;;;;;;2026927;29;20236;-70
2024/04/03 00:30:37;;;;;;;1.77;1.23;;;3.00;99.90;;;;;;2030787;29;20235;-70
2024/04/03 00:31:38;;;;;;;1.42;1.13;;;3.00;99.90;;;;;;2022766;29;20235;-70
2024/04/03 00:32:38;;;;;;;1.20;0.83;;;3.00;99.90;;;;;;2015383;29;20245;-70
2024/04/03 00:33:39;;;;;;;2.40;1.40;;;3.00;99.90;;;;;;2023086;29;20251;-70
2024/04/03 00:34:40;;;;;;;1.80;1.10;;;3.00;99.90;;;;;;2023972;29;20239;-70
2024/04/03 00:35:40;;;;;;;2.10;1.40;;;3.00;99.90;;;;;;2022731;29;20666;-70
2024/04/03 00:36:41;;;;;;;3.67;1.30;;;3.00;99.90;;;;;;2022939;29;20704;-70
2024/04/03 00:37:42;;;;;;;2.07;1.07;;;3.00;99.90;;;;;;2023030;29;20232;-70
2024/04/03 00:38:43;;;;;;;1.83;1.07;;;3.00;99.90;;;;;;2022802;29;20227;-70
2024/04/03 00:39:43;;;;;;;1.53;1.00;;;3.10;99.90;;;;;;2022962;29;20231;-70
2024/04/03 00:40:55;;;;;;;2.60;1.30;;;3.10;99.90;;;;;;2023836;29;20229;-70
2024/04/03 00:41:56;;;;;;;2.47;1.00;;;3.00;99.90;;;;;;2024431;29;20224;-70
2024/04/03 00:43:07;;;;;;;1.30;1.10;;;2.90;99.90;;;;;;2030735;29;20646;-70
2024/04/03 00:44:08;;;;;;;2.38;1.08;;;3.00;99.90;;;;;;2026159;29;20208;-70
2024/04/03 00:45:09;;;;;;;3.43;1.90;;;3.00;99.90;;;;;;2026873;29;20189;-70
2024/04/03 00:46:09;;;;;;;3.97;2.13;;;3.00;99.90;;;;;;2038240;29;20223;-70
2024/04/03 00:47:10;;;;;;;3.87;1.60;;;3.00;99.90;;;;;;2031175;29;20284;-70
2024/04/03 00:48:11;;;;;;;5.70;1.43;;;3.00;99.90;;;;;;2022963;29;20202;-70
2024/04/03 00:49:12;;;;;;;2.87;1.40;;;3.10;99.90;;;;;;2022760;29;20184;-70
2024/04/03 00:50:12;;;;;;;4.43;1.43;;;3.10;99.90;;;;;;2030544;29;20188;-70
2024/04/03 00:51:13;;;;;;;3.60;1.30;;;3.10;99.90;;;;;;2038247;29;20715;-70
2024/04/03 00:52:17;;;;;;;3.00;1.60;;;3.00;99.90;;;;;;2038467;29;20206;-70
2024/04/03 00:53:19;;;;;;;2.38;1.10;;;3.00;99.90;;;;;;2030276;29;20203;-70
2024/04/03 00:54:22;;;;;;;3.92;1.10;;;3.00;99.90;;;;;;2030752;29;20218;-70
2024/04/03 00:55:23;;;;;;;1.88;1.20;;;3.00;99.90;;;;;;2035927;29;20322;-70
2024/04/03 00:56:24;;;;;;;2.57;1.37;;;3.00;99.90;;;;;;2034767;29;20240;-70
2024/04/03 00:57:26;;;;;;;1.45;1.00;;;3.10;99.90;;;;;;2023326;29;20615;-70
2024/04/03 00:58:26;;;;;;;3.00;1.23;;;3.00;99.90;;;;;;2022268;29;20274;-69
2024/04/03 00:59:28;;;;;;;2.23;1.20;;;3.10;99.90;;;;;;2030597;29;20245;-70
2024/04/03 01:00:29;;;;;;;1.85;1.10;;;3.00;99.90;;;;;;2021885;29;20684;-70
2024/04/03 01:01:30;;;;;;;2.10;1.23;;;3.10;99.90;;;;;;2029198;29;20268;-70
2024/04/03 01:02:32;;;;;;;1.83;1.00;;;3.10;99.90;;;;;;2027520;29;20706;-70
2024/04/03 01:03:33;;;;;;;1.13;0.85;;;3.00;99.90;;;;;;2025882;29;20248;-70
2024/04/03 01:04:34;;;;;;;3.30;1.37;;;3.00;99.90;;;;;;2029832;29;20238;-70
2024/04/03 01:05:34;;;;;;;2.00;1.23;;;3.00;99.90;;;;;;2022639;29;20234;-70
2024/04/03 01:06:35;;;;;;;2.37;0.87;;;3.00;99.90;;;;;;2014503;29;20268;-70
2024/04/03 01:07:36;;;;;;;3.25;1.00;;;3.00;99.90;;;;;;2022176;29;20675;-70
2024/04/03 01:08:37;;;;;;;1.73;0.80;;;3.00;99.90;;;;;;2022158;29;20375;-70
2024/04/03 01:09:38;;;;;;;1.47;1.10;;;3.00;99.90;;;;;;2022123;29;20293;-70
2024/04/03 01:10:38;;;;;;;2.60;1.00;;;2.90;99.90;;;;;;2028062;29;20259;-70
2024/04/03 01:11:39;;;;;;;1.93;1.03;;;2.90;99.90;;;;;;2027978;29;20252;-70
2024/04/03 01:12:40;;;;;;;3.47;1.27;;;3.00;99.90;;;;;;2022073;29;20318;-70
2024/04/03 01:13:41;;;;;;;1.00;0.80;;;3.00;99.90;;;;;;2022182;29;20657;-70
2024/04/03 01:14:41;;;;;;;1.50;0.90;;;3.00;99.90;;;;;;2038303;29;20313;-70
2024/04/03 01:15:42;;;;;;;2.50;1.00;;;2.90;99.90;;;;;;2030828;29;20234;-70
2024/04/03 01:16:43;;;;;;;2.30;1.10;;;3.00;99.90;;;;;;2029572;29;20233;-70
2024/04/03 01:17:44;;;;;;;1.45;1.10;;;3.10;99.90;;;;;;2028936;29;20250;-70
2024/04/03 01:18:44;;;;;;;2.13;1.30;;;3.10;99.90;;;;;;2022427;29;20606;-70
2024/04/03 01:19:45;;;;;;;2.27;1.10;;;3.10;99.90;;;;;;2030918;29;20231;-70
2024/04/03 01:20:46;;;;;;;2.80;1.10;;;3.10;99.90;;;;;;2031089;29;20819;-70
2024/04/03 01:21:47;;;;;;;2.92;1.20;;;3.00;99.90;;;;;;2022041;29;20250;-70
2024/04/03 01:22:48;;;;;;;1.83;1.13;;;3.00;99.90;;;;;;2022042;29;20721;-70
2024/04/03 01:23:54;;;;;;;1.37;1.00;;;2.90;99.90;;;;;;2021713;29;20230;-70
2024/04/03 01:24:55;;;;;;;2.35;1.13;;;3.00;99.90;;;;;;2022627;29;20233;-70
2024/04/03 01:25:56;;;;;;;3.33;1.20;;;3.00;99.90;;;;;;2022214;29;21332;-70
2024/04/03 01:26:56;;;;;;;1.70;1.30;;;3.00;99.90;;;;;;2022191;29;20290;-70
2024/04/03 01:27:57;;;;;;;1.40;1.20;;;3.00;99.90;;;;;;2028882;29;20254;-70
2024/04/03 01:28:58;;;;;;;2.07;1.00;;;3.10;99.90;;;;;;2021982;29;20342;-70
2024/04/03 01:29:59;;;;;;;1.33;1.20;;;3.10;99.90;;;;;;2013919;29;20228;-70
2024/04/03 01:30:59;;;;;;;2.95;1.23;;;3.10;99.90;;;;;;2021831;29;20228;-70
2024/04/03 01:32:01;;;;;;;1.87;1.00;;;3.10;99.90;;;;;;2021994;29;20629;-70
2024/04/03 01:33:04;;;;;;;1.88;1.30;;;3.10;99.90;;;;;;2020182;29;20624;-69
2024/04/03 01:34:05;;;;;;;1.08;0.90;;;3.20;99.90;;;;;;2022321;29;20219;-70
2024/04/03 01:35:06;;;;;;;1.43;1.00;;;3.30;99.90;;;;;;2013809;29;20548;-70
2024/04/03 01:36:07;;;;;;;2.00;1.00;;;3.20;99.90;;;;;;2021335;29;20216;-70
2024/04/03 01:37:08;;;;;;;4.97;1.20;;;3.20;99.90;;;;;;2021416;29;20196;-70
2024/04/03 01:38:09;;;;;;;0.95;0.93;;;3.30;99.90;;;;;;2014984;29;20182;-70
2024/04/03 01:39:10;;;;;;;2.67;1.00;;;3.30;99.90;;;;;;2013719;29;20691;-70
2024/04/03 01:40:11;;;;;;;4.10;1.03;;;3.40;99.90;;;;;;2017284;29;20189;-70
2024/04/03 01:41:13;;;;;;;2.07;1.00;;;3.40;99.90;;;;;;2025328;29;20628;-70
2024/04/03 01:42:14;;;;;;;2.80;1.13;;;3.50;99.90;;;;;;2030140;29;20200;-70
2024/04/03 01:43:15;;;;;;;2.83;1.10;;;3.50;99.90;;;;;;2022183;29;20192;-70
2024/04/03 01:44:15;;;;;;;3.07;1.10;;;3.60;99.90;;;;;;2013979;29;20198;-70
2024/04/03 01:45:17;;;;;;;2.03;1.00;;;3.60;99.90;;;;;;2022660;29;20271;-70
2024/04/03 01:46:18;;;;;;;1.67;0.90;;;3.60;99.90;;;;;;2021611;29;20223;-70
2024/04/03 01:47:19;;;;;;;2.08;1.20;;;3.60;99.90;;;;;;2022370;29;20203;-70
2024/04/03 01:48:20;;;;;;;2.57;1.17;;;3.80;99.90;;;;;;2029791;29;20216;-70
2024/04/03 01:49:20;;;;;;;1.47;0.90;;;3.80;99.90;;;;;;2023191;29;20259;-70
2024/04/03 01:50:37;;;;;;;1.93;1.10;;;3.80;99.90;;;;;;2021077;29;20706;-70
2024/04/03 01:51:38;;;;;;;3.75;1.30;;;3.80;99.90;;;;;;2028916;29;20811;-70
2024/04/03 01:52:39;;;;;;;1.97;1.30;;;3.80;99.90;;;;;;2021831;29;20243;-70
2024/04/03 01:53:39;;;;;;;2.57;1.50;;;3.80;99.90;;;;;;2019607;29;20236;-70
2024/04/03 01:54:40;;;;;;;2.63;1.60;;;3.90;99.90;;;;;;2026656;29;20235;-70
2024/04/03 01:55:41;;;;;;;3.00;1.10;;;3.90;99.90;;;;;;2020143;29;20293;-70
2024/04/03 01:56:41;;;;;;;3.43;1.60;;;3.80;99.90;;;;;;2023124;29;20227;-69
2024/04/03 01:57:42;;;;;;;3.40;1.63;;;3.80;99.90;;;;;;2025525;29;20342;-70
2024/04/03 01:58:43;;;;;;;4.70;1.93;;;3.80;99.90;;;;;;2020371;29;20322;-70
2024/04/03 01:59:43;;;;;;;6.30;2.37;;;3.90;99.90;;;;;;2021034;29;20228;-70
2024/04/03 02:00:47;;;;;;;3.57;2.00;;;3.90;99.90;;;;;;2012900;29;20234;-70
2024/04/03 02:01:47;;;;;;;4.43;2.55;;;3.90;99.90;;;;;;2013507;29;20237;-70
2024/04/03 02:02:48;;;;;;;6.67;2.10;;;3.90;99.90;;;;;;2020773;29;20236;-70
2024/04/03 02:03:49;;;;;;;4.60;1.70;;;3.90;99.90;;;;;;2021656;29;20255;-70
2024/04/03 02:04:49;;;;;;;2.93;1.67;;;3.90;99.90;;;;;;2020369;29;20701;-70
2024/04/03 02:05:50;;;;;;;6.77;2.87;;;3.90;99.90;;;;;;2029164;29;20244;-70
2024/04/03 02:06:51;;;;;;;5.03;2.13;;;3.90;99.90;;;;;;2029722;29;20243;-70
2024/04/03 02:07:51;;;;;;;4.07;2.00;;;3.90;99.90;;;;;;2029006;29;20322;-70
2024/04/03 02:08:52;;;;;;;6.37;2.30;;;3.90;99.90;;;;;;2031142;29;20231;-70
2024/04/03 02:09:53;;;;;;;7.90;2.60;;;3.90;99.90;;;;;;2019824;29;20260;-70
2024/04/03 02:10:53;;;;;;;5.43;2.60;;;3.90;99.90;;;;;;2021181;29;20243;-70
2024/04/03 02:11:54;;;;;;;5.67;2.57;;;4.00;99.90;;;;;;2021230;29;20269;-70
2024/04/03 02:12:55;;;;;;;5.45;2.42;;;4.00;99.90;;;;;;2012893;29;20263;-70
2024/04/03 02:13:56;;;;;;;4.57;2.50;;;4.10;99.90;;;;;;2021148;29;20243;-70
2024/04/03 02:14:56;;;;;;;4.20;2.50;;;4.20;99.90;;;;;;2025477;29;20773;-70
2024/04/03 02:15:57;;;;;;;4.33;2.27;;;4.10;99.90;;;;;;2022699;29;20248;-70
2024/04/03 02:16:58;;;;;;;6.50;2.27;;;4.20;99.90;;;;;;2020985;29;20287;-70
2024/04/03 02:17:59;;;;;;;7.97;2.43;;;4.10;99.90;;;;;;2020727;29;20385;-70
2024/04/03 02:18:59;;;;;;;4.17;2.10;;;4.10;99.90;;;;;;2013163;29;20246;-70
2024/04/03 02:20:00;;;;;;;3.70;2.30;;;4.00;99.90;;;;;;2011740;29;20239;-70
2024/04/03 02:21:01;;;;;;;8.70;2.90;;;4.00;99.90;;;;;;2012150;29;20790;-70
2024/04/03 02:22:01;;;;;;;5.70;2.40;;;4.00;99.90;;;;;;2020895;29;20588;-69
2024/04/03 02:23:02;;;;;;;7.57;2.50;;;4.10;99.90;;;;;;2020881;29;20198;-70
2024/04/03 02:24:03;;;;;;;3.80;2.20;;;4.00;99.90;;;;;;2021196;29;20608;-70
2024/04/03 02:25:04;;;;;;;8.55;3.13;;;4.00;99.90;;;;;;2030386;29;20192;-70
2024/04/03 02:26:05;;;;;;;4.67;2.80;;;4.00;99.90;;;;;;2028915;29;20207;-70
2024/04/03 02:27:06;;;;;;;7.57;2.73;;;4.00;99.90;;;;;;2021112;29;20431;-70
2024/04/03 02:28:06;;;;;;;4.33;2.63;;;4.00;99.90;;;;;;2013586;29;20190;-70
2024/04/03 02:29:07;;;;;;;4.57;2.57;;;3.90;99.90;;;;;;2021764;29;20701;-70
2024/04/03 02:30:08;;;;;;;5.53;2.37;;;3.80;99.90;;;;;;2028975;29;20193;-70
2024/04/03 02:31:09;;;;;;;6.20;2.30;;;3.80;99.90;;;;;;2036443;29;20657;-70
2024/04/03 02:32:10;;;;;;;4.37;2.43;;;3.70;99.90;;;;;;2028812;29;20276;-70
2024/04/03 02:33:11;;;;;;;7.70;2.60;;;3.80;99.90;;;;;;2020948;29;20196;-70
2024/04/03 02:34:12;;;;;;;4.07;1.75;;;3.80;99.90;;;;;;2029269;29;20199;-70
2024/04/03 02:35:13;;;;;;;5.17;2.47;;;3.80;99.90;;;;;;2029544;29;20214;-70
2024/04/03 02:36:14;;;;;;;5.37;2.63;;;3.80;99.90;;;;;;2021038;29;20225;-70
2024/04/03 02:37:14;;;;;;;5.77;2.10;;;3.80;99.90;;;;;;2019870;29;20185;-70
2024/04/03 02:38:15;;;;;;;6.27;3.33;;;3.70;99.90;;;;;;2025152;29;20212;-70
2024/04/03 02:39:16;;;;;;;4.77;2.33;;;3.80;99.90;;;;;;2020552;29;20218;-70
2024/04/03 02:40:16;;;;;;;6.43;2.43;;;3.80;99.90;;;;;;2020968;29;20199;-70
2024/04/03 02:41:17;;;;;;;3.70;2.37;;;3.90;99.90;;;;;;2021143;29;20193;-70
2024/04/03 02:42:18;;;;;;;8.43;2.73;;;3.90;99.90;;;;;;2021126;29;20215;-70
2024/04/03 02:43:18;;;;;;;4.20;2.33;;;3.90;99.90;;;;;;2029704;29;20189;-70
2024/04/03 02:44:19;;;;;;;4.93;2.17;;;4.00;99.90;;;;;;2018348;29;20283;-70
2024/04/03 02:45:20;;;;;;;6.93;2.37;;;3.90;99.90;;;;;;2021270;29;20204;-70
2024/04/03 02:46:20;;;;;;;4.33;2.10;;;3.90;99.90;;;;;;2029323;29;20252;-70
2024/04/03 02:47:22;;;;;;;6.90;2.37;;;4.00;99.90;;;;;;2028903;29;20246;-70
2024/04/03 02:48:23;;;;;;;5.03;2.10;;;4.10;99.90;;;;;;2028827;29;20235;-70
2024/04/03 02:49:24;;;;;;;8.45;2.80;;;4.10;99.90;;;;;;2012963;29;20245;-70
2024/04/03 02:50:24;;;;;;;5.07;2.43;;;4.10;99.90;;;;;;2004875;29;20289;-70
2024/04/03 02:51:25;;;;;;;4.67;2.20;;;4.20;99.90;;;;;;2027759;29;20579;-70
2024/04/03 02:52:26;;;;;;;4.13;2.07;;;4.20;99.90;;;;;;2036102;29;20228;-70
2024/04/03 02:53:26;;;;;;;6.17;2.60;;;4.20;99.90;;;;;;2029557;29;20229;-70
2024/04/03 02:54:27;;;;;;;6.27;2.50;;;4.20;99.90;;;;;;2028797;29;20232;-70
2024/04/03 02:55:28;;;;;;;4.53;2.20;;;4.20;99.90;;;;;;2024984;29;20719;-70
2024/04/03 02:56:28;;;;;;;6.93;2.80;;;4.20;99.90;;;;;;2025441;29;20838;-70
2024/04/03 02:57:29;;;;;;;10.77;3.63;;;4.10;99.90;;;;;;2028419;29;20236;-70
2024/04/03 02:58:30;;;;;;;5.77;2.53;;;4.20;99.90;;;;;;2036601;29;20258;-70
2024/04/03 02:59:30;;;;;;;4.87;2.23;;;4.20;99.90;;;;;;2037411;29;20325;-70
2024/04/03 03:00:31;;;;;;;5.33;2.60;;;4.20;99.90;;;;;;2025585;29;20788;-70
2024/04/03 03:01:32;;;;;;;9.30;2.83;;;4.20;99.90;;;;;;2024591;29;20236;-70
2024/04/03 03:02:32;;;;;;;6.40;2.87;;;4.10;99.90;;;;;;2022088;29;20292;-70
2024/04/03 03:03:34;;;;;;;5.50;2.50;;;4.20;99.90;;;;;;2020959;29;20224;-70
2024/04/03 03:04:42;;;;;;;6.05;2.50;;;4.20;99.90;;;;;;2035824;29;20235;-70
2024/04/03 03:05:47;;;;;;;3.55;2.50;;;4.30;99.90;;;;;;2035061;29;20235;-70
2024/04/03 03:06:48;;;;;;;5.70;2.92;;;4.20;99.90;;;;;;2022418;29;20272;-70
2024/04/03 03:07:49;;;;;;;4.93;2.30;;;4.20;99.90;;;;;;2021644;29;20237;-70
2024/04/03 03:08:49;;;;;;;5.10;2.50;;;4.10;99.90;;;;;;2020959;29;20391;-70
2024/04/03 03:09:50;;;;;;;3.37;1.80;;;4.10;99.90;;;;;;2021019;29;20268;-70
2024/04/03 03:10:51;;;;;;;5.07;2.23;;;4.20;99.90;;;;;;2029700;29;20752;-70
2024/04/03 03:11:52;;;;;;;5.32;2.45;;;4.20;99.90;;;;;;2037508;29;20250;-70
2024/04/03 03:12:52;;;;;;;7.17;2.83;;;4.20;99.90;;;;;;2028509;29;20266;-70
2024/04/03 03:13:53;;;;;;;5.80;2.40;;;4.30;99.90;;;;;;2029540;29;20236;-70
2024/04/03 03:14:54;;;;;;;5.03;2.07;;;4.20;99.90;;;;;;2029360;29;20279;-71
2024/04/03 03:15:59;;;;;;;8.20;3.23;;;4.10;99.90;;;;;;2028746;29;20235;-70
2024/04/03 03:17:00;;;;;;;7.07;2.88;;;4.20;99.90;;;;;;2028384;29;20231;-70
2024/04/03 03:18:00;;;;;;;8.67;3.10;;;4.10;99.90;;;;;;2014950;29;20582;-70
2024/04/03 03:19:01;;;;;;;6.43;2.60;;;4.10;99.90;;;;;;2020402;29;21466;-70
2024/04/03 03:20:02;;;;;;;7.67;2.70;;;4.10;99.90;;;;;;2029865;29;20196;-70
2024/04/03 03:21:03;;;;;;;10.93;3.40;;;4.00;99.90;;;;;;2014008;29;20596;-70
2024/04/03 03:22:04;;;;;;;7.07;3.08;;;4.10;99.90;;;;;;2013154;29;20597;-70
2024/04/03 03:23:04;;;;;;;9.13;3.30;;;4.10;99.90;;;;;;2013361;29;20236;-70
2024/04/03 03:24:05;;;;;;;7.60;3.03;;;4.00;99.90;;;;;;2013453;29;20641;-70
2024/04/03 03:25:06;;;;;;;6.97;3.25;;;4.00;99.90;;;;;;2029480;29;20187;-70
2024/04/03 03:26:07;;;;;;;6.77;2.80;;;3.90;99.90;;;;;;2021520;29;20215;-70
2024/04/03 03:27:08;;;;;;;6.57;2.93;;;3.90;99.90;;;;;;2013344;29;20189;-70
2024/04/03 03:28:09;;;;;;;9.23;3.40;;;3.90;99.90;;;;;;2013840;29;20190;-70
2024/04/03 03:29:10;;;;;;;5.97;3.28;;;3.90;99.90;;;;;;2017120;29;20190;-70
2024/04/03 03:30:10;;;;;;;9.23;3.60;;;4.00;99.90;;;;;;2032490;29;20228;-70
2024/04/03 03:31:12;;;;;;;5.60;2.37;;;4.00;99.90;;;;;;2029234;29;20189;-70
2024/04/03 03:32:13;;;;;;;5.63;2.22;;;4.00;99.90;;;;;;2014720;29;20190;-70
2024/04/03 03:33:14;;;;;;;3.87;2.30;;;4.00;99.90;;;;;;2023792;29;20655;-70
2024/04/03 03:34:15;;;;;;;5.47;2.25;;;4.00;99.90;;;;;;2021205;29;20193;-70
2024/04/03 03:35:16;;;;;;;4.90;2.47;;;4.00;99.90;;;;;;2022589;29;20730;-70
2024/04/03 03:36:16;;;;;;;5.73;2.10;;;4.10;99.90;;;;;;2039040;29;20243;-70
2024/04/03 03:37:17;;;;;;;5.03;2.20;;;4.00;99.90;;;;;;2030383;29;20216;-70
2024/04/03 03:38:18;;;;;;;4.77;1.70;;;4.00;99.90;;;;;;2014901;29;20214;-70
2024/04/03 03:39:19;;;;;;;3.88;2.10;;;4.10;99.90;;;;;;2021907;29;20182;-70
2024/04/03 03:40:19;;;;;;;3.40;1.73;;;4.00;99.90;;;;;;2029961;29;20188;-70
2024/04/03 03:41:20;;;;;;;4.97;1.97;;;4.00;99.90;;;;;;2022836;29;20674;-71
2024/04/03 03:42:22;;;;;;;2.60;1.50;;;4.10;99.90;;;;;;2014517;29;20873;-70
2024/04/03 03:43:23;;;;;;;3.85;1.92;;;4.10;99.90;;;;;;2023095;29;20241;-70
2024/04/03 03:44:24;;;;;;;5.20;2.10;;;4.10;99.90;;;;;;2021647;29;20253;-70
2024/04/03 03:45:24;;;;;;;2.85;1.80;;;4.10;99.90;;;;;;2022348;29;20312;-70
2024/04/03 03:46:25;;;;;;;2.47;1.50;;;4.10;99.90;;;;;;2030734;29;20262;-70
2024/04/03 03:47:26;;;;;;;5.47;1.70;;;4.20;99.90;;;;;;2021759;29;20223;-70
2024/04/03 03:52:36;;;;;;;4.13;1.55;;;4.30;99.90;;;;;;2020992;29;20233;-70
2024/04/03 03:53:36;;;;;;;2.67;1.40;;;4.30;99.90;;;;;;2021170;29;20316;-70
2024/04/03 03:54:37;;;;;;;4.07;1.67;;;4.30;99.90;;;;;;2033472;29;20254;-70
2024/04/03 03:55:38;;;;;;;3.47;1.63;;;4.20;99.90;;;;;;2037913;29;20295;-70
2024/04/03 03:56:38;;;;;;;2.93;1.40;;;4.20;99.90;;;;;;2031393;29;20690;-70
2024/04/03 03:57:39;;;;;;;2.50;1.47;;;4.10;99.90;;;;;;2027765;29;20236;-70
2024/04/03 03:58:40;;;;;;;3.67;1.60;;;4.00;99.90;;;;;;2022722;29;20253;-70
2024/04/03 03:59:40;;;;;;;3.37;1.40;;;4.00;99.90;;;;;;2021571;29;20241;-70
2024/04/03 04:00:41;;;;;;;2.20;1.50;;;4.00;99.90;;;;;;2031410;29;20610;-70
2024/04/03 04:01:42;;;;;;;2.13;1.50;;;4.10;99.90;;;;;;2030915;29;20236;-70
2024/04/03 04:02:42;;;;;;;2.43;1.53;;;4.10;99.90;;;;;;2022311;29;20229;-70
2024/04/03 04:03:43;;;;;;;3.03;1.50;;;4.10;99.90;;;;;;2023141;29;20239;-70
2024/04/03 04:04:49;;;;;;;3.20;1.20;;;4.20;99.90;;;;;;2033109;29;20310;-70
2024/04/03 04:05:58;;;;;;;2.30;1.40;;;4.10;99.90;;;;;;2022163;29;20316;-70
2024/04/03 04:06:59;;;;;;;3.90;1.70;;;4.10;99.90;;;;;;2020261;29;20240;-70
2024/04/03 04:08:00;;;;;;;4.10;1.70;;;4.10;99.90;;;;;;2022387;29;20729;-70
2024/04/03 04:09:00;;;;;;;4.13;1.80;;;4.10;99.90;;;;;;2023133;29;20233;-70
2024/04/03 04:10:01;;;;;;;5.23;1.73;;;4.10;99.90;;;;;;2021366;29;20304;-70
2024/04/03 04:11:03;;;;;;;3.13;1.53;;;4.10;99.90;;;;;;2030425;29;20264;-70
2024/04/03 04:12:04;;;;;;;1.83;1.40;;;4.20;99.90;;;;;;2029772;29;20189;-70
2024/04/03 04:13:05;;;;;;;3.37;1.77;;;4.20;99.90;;;;;;2030749;29;20284;-70
2024/04/03 04:14:07;;;;;;;2.50;1.40;;;4.30;99.90;;;;;;2029095;29;20552;-70
2024/04/03 04:15:07;;;;;;;3.22;1.35;;;4.30;99.90;;;;;;2037637;29;20184;-70
2024/04/03 04:16:08;;;;;;;3.53;2.10;;;4.20;99.90;;;;;;2030423;29;20723;-70
2024/04/03 04:17:09;;;;;;;4.43;2.67;;;4.20;99.90;;;;;;2022073;29;20741;-70
2024/04/03 04:18:10;;;;;;;5.70;2.60;;;4.00;99.90;;;;;;2031236;29;20194;-70
2024/04/03 04:19:11;;;;;;;4.40;1.95;;;4.10;99.90;;;;;;2026028;29;20264;-70
2024/04/03 04:20:12;;;;;;;5.90;2.40;;;4.20;99.90;;;;;;2031214;29;20602;-70
2024/04/03 04:21:15;;;;;;;5.33;2.50;;;4.30;99.90;;;;;;2030842;29;20210;-69
2024/04/03 04:22:16;;;;;;;4.30;2.60;;;4.30;99.90;;;;;;2030879;29;20196;-70
2024/04/03 04:23:17;;;;;;;5.10;2.65;;;4.20;99.90;;;;;;2014171;29;20201;-70
2024/04/03 04:24:18;;;;;;;4.53;2.50;;;4.20;99.90;;;;;;2013706;29;20221;-70
2024/04/03 04:25:19;;;;;;;6.28;2.83;;;4.20;99.90;;;;;;2028264;29;20216;-70
2024/04/03 04:26:20;;;;;;;6.23;2.90;;;4.10;99.90;;;;;;2028895;29;20332;-70
2024/04/03 04:27:22;;;;;;;4.83;2.73;;;4.20;99.90;;;;;;2026037;29;20436;-70
2024/04/03 04:28:23;;;;;;;6.07;3.15;;;4.30;99.90;;;;;;2021880;29;20346;-70
2024/04/03 04:29:24;;;;;;;5.38;3.17;;;4.30;99.90;;;;;;2014349;29;20817;-70
2024/04/03 04:30:25;;;;;;;6.90;3.13;;;4.40;99.90;;;;;;2021831;29;20328;-70
2024/04/03 04:31:25;;;;;;;6.37;2.97;;;4.30;99.90;;;;;;2029861;29;20857;-70
2024/04/03 04:32:26;;;;;;;5.30;3.03;;;4.30;99.90;;;;;;2030281;29;20294;-70
2024/04/03 04:33:29;;;;;;;5.60;2.63;;;4.30;99.90;;;;;;2030765;29;20638;-70
2024/04/03 04:34:30;;;;;;;3.78;2.28;;;4.30;99.90;;;;;;2029435;29;20296;-70
2024/04/03 04:35:30;;;;;;;5.77;2.40;;;4.20;99.90;;;;;;2027239;29;20324;-70
2024/04/03 04:36:31;;;;;;;7.37;2.90;;;4.20;99.90;;;;;;2033592;29;20282;-70
2024/04/03 04:37:31;;;;;;;4.07;2.23;;;4.20;99.90;;;;;;2037424;29;20271;-70
2024/04/03 04:38:32;;;;;;;5.40;2.43;;;4.30;99.90;;;;;;2038494;29;20232;-70
2024/04/03 04:39:33;;;;;;;4.37;2.60;;;4.20;99.90;;;;;;2038792;29;20319;-70
2024/04/03 04:40:34;;;;;;;4.50;2.50;;;4.20;99.90;;;;;;2026514;29;20324;-70
2024/04/03 04:41:34;;;;;;;5.30;2.30;;;4.20;99.90;;;;;;2019109;29;20244;-70
2024/04/03 04:42:35;;;;;;;5.40;2.60;;;4.20;99.90;;;;;;2021749;29;20256;-70
2024/04/03 04:43:35;;;;;;;3.93;2.07;;;4.30;99.90;;;;;;2038167;29;20243;-70
2024/04/03 04:44:36;;;;;;;3.77;1.70;;;4.30;99.90;;;;;;2029004;29;20236;-70
2024/04/03 04:45:37;;;;;;;5.17;2.30;;;4.30;99.90;;;;;;2029526;29;20258;-70
2024/04/03 04:46:38;;;;;;;4.40;2.43;;;4.40;99.90;;;;;;2037400;29;20244;-70
2024/04/03 04:47:39;;;;;;;4.55;2.30;;;4.40;99.90;;;;;;2030667;29;20244;-70
2024/04/03 04:48:40;;;;;;;3.37;2.30;;;4.50;99.90;;;;;;2028469;29;20263;-70
2024/04/03 04:49:40;;;;;;;5.20;2.60;;;4.60;99.90;;;;;;2030504;29;20237;-70
2024/04/03 04:50:42;;;;;;;6.20;2.13;;;4.50;99.90;;;;;;2021991;29;20697;-69
2024/04/03 04:51:43;;;;;;;3.78;2.25;;;4.60;99.90;;;;;;2021529;29;20675;-70
2024/04/03 04:52:44;;;;;;;5.85;2.10;;;4.60;99.90;;;;;;2030383;29;20250;-70
2024/04/03 04:53:45;;;;;;;4.50;2.47;;;4.60;99.90;;;;;;2030582;29;20454;-70
2024/04/03 04:54:46;;;;;;;4.63;2.58;;;4.70;99.90;;;;;;2021469;29;20298;-71
2024/04/03 04:56:05;;;;;;;4.93;2.33;;;4.70;99.90;;;;;;2013690;29;20860;-70
2024/04/03 04:57:09;;;;;;;3.58;1.58;;;4.70;99.90;;;;;;2015245;29;20210;-70
2024/04/03 04:58:10;;;;;;;3.40;1.80;;;4.60;99.90;;;;;;2022585;29;20276;-70
2024/04/03 04:59:13;;;;;;;5.33;2.20;;;4.60;99.90;;;;;;2030874;29;20193;-69
2024/04/03 05:00:15;;;;;;;3.20;1.70;;;4.70;99.90;;;;;;2029603;29;20188;-71
2024/04/03 05:01:16;;;;;;;3.67;1.55;;;4.70;99.90;;;;;;2026002;29;20189;-70
2024/04/03 05:02:17;;;;;;;3.45;1.50;;;4.70;99.90;;;;;;2026610;29;20592;-70
2024/04/03 05:03:17;;;;;;;5.10;1.73;;;4.70;99.90;;;;;;2029556;29;20189;-70
2024/04/03 05:04:18;;;;;;;3.20;1.40;;;4.70;99.90;;;;;;2021309;29;20189;-69
2024/04/03 05:05:19;;;;;;;3.27;1.63;;;4.70;99.90;;;;;;2014162;29;20198;-70
2024/04/03 05:06:19;;;;;;;3.50;1.70;;;4.80;99.90;;;;;;2021982;29;20259;-71
2024/04/03 05:07:20;;;;;;;2.60;1.43;;;4.80;99.90;;;;;;2029554;29;20684;-70
2024/04/03 05:08:21;;;;;;;3.43;1.27;;;4.80;99.90;;;;;;2018480;29;20979;-70
2024/04/03 05:09:21;;;;;;;2.83;1.90;;;4.80;99.90;;;;;;2014365;29;20249;-70
2024/04/03 05:10:22;;;;;;;3.23;1.50;;;4.90;99.90;;;;;;2021406;29;20278;-70
2024/04/03 05:11:23;;;;;;;2.73;1.47;;;4.90;99.90;;;;;;2022282;29;20253;-70
2024/04/03 05:12:24;;;;;;;4.07;1.80;;;4.90;99.90;;;;;;2025684;29;20248;-70
2024/04/03 05:13:32;;;;;;;2.33;1.60;;;4.90;99.90;;;;;;2022010;29;20776;-70
2024/04/03 05:14:33;;;;;;;3.03;1.85;;;5.00;99.90;;;;;;2029522;29;20701;-70
2024/04/03 05:15:33;;;;;;;3.27;1.67;;;4.90;99.90;;;;;;2029857;29;20231;-71
2024/04/03 05:16:34;;;;;;;4.07;2.10;;;4.90;99.90;;;;;;2022361;29;20730;-70
2024/04/03 05:17:35;;;;;;;3.63;2.27;;;5.00;99.90;;;;;;2018337;29;20622;-70
2024/04/03 05:18:36;;;;;;;2.93;2.27;;;5.00;99.90;;;;;;2026852;29;20251;-70
2024/04/03 05:19:36;;;;;;;1.67;1.50;;;5.00;99.90;;;;;;2029157;29;20728;-70
2024/04/03 05:20:37;;;;;;;5.43;2.03;;;4.90;99.90;;;;;;2030906;29;20246;-70
2024/04/03 05:21:38;;;;;;;2.77;1.77;;;4.80;99.90;;;;;;2029647;29;20233;-70
2024/04/03 05:22:39;;;;;;;2.60;2.17;;;4.90;99.90;;;;;;2025610;29;20736;-70
2024/04/03 05:23:40;;;;;;;6.80;2.07;;;4.80;99.90;;;;;;2025669;29;20240;-70
2024/04/03 05:24:40;;;;;;;3.05;1.95;;;4.80;99.90;;;;;;2029426;29;20248;-70
2024/04/03 05:25:41;;;;;;;2.20;1.57;;;4.80;99.90;;;;;;2021593;29;20324;-70
2024/04/03 05:26:42;;;;;;;3.17;1.83;;;4.90;99.90;;;;;;2021701;29;20373;-70
2024/04/03 05:27:43;;;;;;;5.17;1.83;;;4.90;99.90;;;;;;2026605;29;20605;-70